createdAt,value
2022-12-08T00:01:25.115Z,67.60
2022-12-08T00:03:52.400Z,67.70
2022-12-08T00:07:01.129Z,67.70
2022-12-08T00:09:38.208Z,67.80
2022-12-08T00:12:09.152Z,67.60
2022-12-08T00:14:37.100Z,67.60
2022-12-08T00:17:05.396Z,67.70
2022-12-08T00:19:32.923Z,67.50
2022-12-08T00:22:00.226Z,67.20
2022-12-08T00:24:33.439Z,67.40
2022-12-08T00:27:00.362Z,67.50
2022-12-08T00:29:27.422Z,67.80
2022-12-08T00:31:54.613Z,67.80
2022-12-08T00:34:21.727Z,67.70
2022-12-08T00:36:48.842Z,67.70
2022-12-08T00:39:16.798Z,67.90
2022-12-08T00:42:02.536Z,68.00
2022-12-08T00:44:29.451Z,68.20
2022-12-08T00:46:56.834Z,68.20
2022-12-08T00:49:23.908Z,68.20
2022-12-08T00:51:50.844Z,67.90
2022-12-08T00:54:18.196Z,67.90
2022-12-08T00:56:45.048Z,67.60
2022-12-08T00:59:12.368Z,67.50
2022-12-08T01:01:39.296Z,67.30
2022-12-08T01:04:08.133Z,67.30
2022-12-08T01:06:36.040Z,67.20
2022-12-08T01:09:05.624Z,67.40
2022-12-08T01:11:33.388Z,67.50
2022-12-08T01:14:00.408Z,67.60
2022-12-08T01:16:29.699Z,67.60
2022-12-08T01:18:58.680Z,67.50
2022-12-08T01:21:26.243Z,67.30
2022-12-08T01:23:53.132Z,67.10
2022-12-08T01:26:20.404Z,67.10
2022-12-08T01:28:48.020Z,67.10
2022-12-08T01:31:18.050Z,67.40
2022-12-08T01:33:45.183Z,67.30
2022-12-08T01:36:24.011Z,67.50
2022-12-08T01:38:51.324Z,67.30
2022-12-08T01:41:21.131Z,67.30
2022-12-08T01:44:17.124Z,67.10
2022-12-08T01:46:48.925Z,66.90
2022-12-08T01:49:29.433Z,66.60
2022-12-08T01:52:28.999Z,66.40
2022-12-08T01:55:08.748Z,66.90
2022-12-08T01:57:41.588Z,67.40
2022-12-08T02:00:15.232Z,67.80
2022-12-08T02:02:58.495Z,67.80
2022-12-08T02:05:28.854Z,68.10
2022-12-08T02:07:57.370Z,68.40
2022-12-08T02:10:28.230Z,68.30
2022-12-08T02:12:57.556Z,68.20
2022-12-08T02:15:38.915Z,68.10
2022-12-08T02:18:27.612Z,68.20
2022-12-08T02:21:22.453Z,68.00
2022-12-08T02:24:17.347Z,67.70
2022-12-08T02:27:11.197Z,67.40
2022-12-08T02:29:46.993Z,67.90
2022-12-08T02:32:32.012Z,68.10
2022-12-08T02:35:04.725Z,68.00
2022-12-08T02:37:46.997Z,68.20
2022-12-08T02:40:20.104Z,68.40
2022-12-08T02:43:07.625Z,68.50
2022-12-08T02:45:41.354Z,68.10
2022-12-08T02:48:09.189Z,68.20
2022-12-08T02:50:36.045Z,68.30
2022-12-08T02:55:53.665Z,68.50
2022-12-08T02:58:29.177Z,68.60
2022-12-08T03:01:06.112Z,68.90
2022-12-08T03:04:02.261Z,68.90
2022-12-08T03:06:51.602Z,68.90
2022-12-08T03:09:39.912Z,68.90
2022-12-08T03:12:16.816Z,68.90
2022-12-08T03:14:48.329Z,68.90
2022-12-08T03:17:19.540Z,68.60
2022-12-08T03:19:48.090Z,68.70
2022-12-08T03:22:18.953Z,68.70
2022-12-08T03:24:47.081Z,68.50
2022-12-08T03:27:32.336Z,68.30
2022-12-08T03:30:01.622Z,68.00
2022-12-08T03:32:40.351Z,68.40
2022-12-08T03:35:12.092Z,68.40
2022-12-08T03:37:41.031Z,68.50
2022-12-08T03:40:11.013Z,68.30
2022-12-08T03:42:37.801Z,68.00
2022-12-08T03:45:05.702Z,67.80
2022-12-08T03:47:32.529Z,68.10
2022-12-08T03:49:59.393Z,68.20
2022-12-08T03:52:26.490Z,68.10
2022-12-08T03:54:53.558Z,68.00
2022-12-08T03:57:21.711Z,68.10
2022-12-08T03:59:48.593Z,68.40
2022-12-08T04:02:15.429Z,68.50
2022-12-08T04:04:43.189Z,68.50
2022-12-08T04:07:10.072Z,68.60
2022-12-08T04:09:36.953Z,68.70
2022-12-08T04:12:03.929Z,69.10
2022-12-08T04:14:30.788Z,68.40
2022-12-08T04:16:57.600Z,68.10
2022-12-08T04:19:24.676Z,67.80
2022-12-08T04:21:51.590Z,67.70
2022-12-08T04:24:18.398Z,67.60
2022-12-08T04:26:46.008Z,67.70
2022-12-08T04:29:12.905Z,67.70
2022-12-08T04:31:39.709Z,67.70
2022-12-08T04:34:06.633Z,67.90
2022-12-08T04:36:33.516Z,68.00
2022-12-08T04:39:00.456Z,68.10
2022-12-08T04:41:27.412Z,68.20
2022-12-08T04:43:54.253Z,68.20
2022-12-08T04:46:21.166Z,68.20
2022-12-08T04:48:48.016Z,68.30
2022-12-08T04:51:19.328Z,68.40
2022-12-08T04:53:47.083Z,68.40
2022-12-08T04:56:16.048Z,68.30
2022-12-08T04:58:43.469Z,68.30
2022-12-08T05:01:10.574Z,68.20
2022-12-08T05:03:37.630Z,68.40
2022-12-08T05:06:05.130Z,68.40
2022-12-08T05:08:32.930Z,68.30
2022-12-08T05:11:06.037Z,68.40
2022-12-08T05:13:33.349Z,68.60
2022-12-08T05:16:11.771Z,68.90
2022-12-08T05:18:39.641Z,68.90
2022-12-08T05:21:07.283Z,69.00
2022-12-08T05:23:34.568Z,68.90
2022-12-08T05:26:01.376Z,68.90
2022-12-08T05:28:44.288Z,68.90
2022-12-08T05:31:12.914Z,68.70
2022-12-08T05:33:40.242Z,68.70
2022-12-08T05:36:08.127Z,68.50
2022-12-08T05:38:35.152Z,68.30
2022-12-08T05:41:02.144Z,68.20
2022-12-08T05:43:29.208Z,68.10
2022-12-08T05:45:56.107Z,67.70
2022-12-08T05:48:23.023Z,67.70
2022-12-08T05:50:50.843Z,67.60
2022-12-08T05:53:19.592Z,67.60
2022-12-08T05:55:47.459Z,67.60
2022-12-08T05:58:17.323Z,68.00
2022-12-08T06:00:45.369Z,68.20
2022-12-08T06:03:13.127Z,68.20
2022-12-08T06:05:41.424Z,68.30
2022-12-08T06:08:09.110Z,68.40
2022-12-08T06:10:37.626Z,68.40
2022-12-08T06:13:04.460Z,68.50
2022-12-08T06:15:31.408Z,68.50
2022-12-08T06:17:58.180Z,68.50
2022-12-08T06:20:25.022Z,68.50
2022-12-08T06:22:51.835Z,68.50
2022-12-08T06:25:18.711Z,68.60
2022-12-08T06:27:45.545Z,68.80
2022-12-08T06:30:12.777Z,68.70
2022-12-08T06:32:39.610Z,68.40
2022-12-08T06:35:06.945Z,68.30
2022-12-08T06:37:33.826Z,68.40
2022-12-08T06:40:00.684Z,68.20
2022-12-08T06:42:46.804Z,68.00
2022-12-08T06:45:15.540Z,68.00
2022-12-08T06:47:42.379Z,67.90
2022-12-08T06:50:10.269Z,67.80
2022-12-08T06:52:45.625Z,67.70
2022-12-08T06:55:35.404Z,67.60
2022-12-08T06:58:03.422Z,67.60
2022-12-08T07:00:30.369Z,67.60
2022-12-08T07:02:57.293Z,67.50
2022-12-08T07:05:24.453Z,67.70
2022-12-08T07:07:51.309Z,67.80
2022-12-08T07:10:18.268Z,68.00
2022-12-08T07:12:45.538Z,68.10
2022-12-08T07:15:12.405Z,68.20
2022-12-08T07:17:39.216Z,68.40
2022-12-08T07:20:07.159Z,68.40
2022-12-08T07:22:34.406Z,68.60
2022-12-08T07:25:01.233Z,68.70
2022-12-08T07:27:28.501Z,68.70
2022-12-08T07:29:55.365Z,68.70
2022-12-08T07:32:22.185Z,68.80
2022-12-08T07:34:49.087Z,68.80
2022-12-08T07:37:15.912Z,68.80
2022-12-08T07:39:43.065Z,68.90
2022-12-08T07:42:10.657Z,68.90
2022-12-08T07:44:37.492Z,69.10
2022-12-08T07:47:04.546Z,69.50
2022-12-08T07:49:31.351Z,69.50
2022-12-08T07:51:58.249Z,70.30
2022-12-08T07:54:25.156Z,69.70
2022-12-08T07:56:51.972Z,69.80
2022-12-08T07:59:19.380Z,69.70
2022-12-08T08:01:56.142Z,69.70
2022-12-08T08:04:33.347Z,69.80
2022-12-08T08:07:00.166Z,69.70
2022-12-08T08:09:27.011Z,69.80
2022-12-08T08:12:22.195Z,69.90
2022-12-08T08:14:40.881Z,70.30
2022-12-08T08:17:07.903Z,70.90
2022-12-08T08:19:34.789Z,71.10
2022-12-08T08:22:01.591Z,71.40
2022-12-08T08:24:28.396Z,71.50
2022-12-08T08:26:55.455Z,71.10
2022-12-08T08:29:22.489Z,70.70
2022-12-08T08:31:49.457Z,71.00
2022-12-08T08:34:16.633Z,69.80
2022-12-08T08:36:43.659Z,69.50
2022-12-08T08:39:10.557Z,68.80
2022-12-08T08:41:37.370Z,68.70
2022-12-08T08:44:04.520Z,68.50
2022-12-08T08:46:32.112Z,68.20
2022-12-08T08:48:59.093Z,68.20
2022-12-08T08:51:25.924Z,68.10
2022-12-08T08:53:52.829Z,68.40
2022-12-08T08:56:19.837Z,69.00
2022-12-08T08:58:48.828Z,68.30
2022-12-08T09:01:22.400Z,68.20
2022-12-08T09:03:49.745Z,68.20
2022-12-08T09:06:17.419Z,68.10
2022-12-08T09:08:45.012Z,68.30
2022-12-08T09:11:11.997Z,68.30
2022-12-08T09:13:39.092Z,68.30
2022-12-08T09:16:08.243Z,68.40
2022-12-08T09:18:35.509Z,68.30
2022-12-08T09:21:13.086Z,68.20
2022-12-08T09:23:40.849Z,68.40
2022-12-08T09:26:07.985Z,67.90
2022-12-08T09:28:35.110Z,67.80
2022-12-08T09:31:02.170Z,67.90
2022-12-08T09:33:29.140Z,67.80
2022-12-08T09:35:56.426Z,67.70
2022-12-08T09:38:23.284Z,67.40
2022-12-08T09:40:53.369Z,67.30
2022-12-08T09:43:56.009Z,67.20
2022-12-08T09:46:23.383Z,67.20
2022-12-08T09:48:57.297Z,67.20
2022-12-08T09:51:27.341Z,67.00
2022-12-08T09:54:00.172Z,67.10
2022-12-08T09:56:32.917Z,67.00
2022-12-08T09:59:23.895Z,67.20
2022-12-08T10:01:51.223Z,67.40
2022-12-08T10:04:29.423Z,67.30
2022-12-08T10:07:30.869Z,67.00
2022-12-08T10:10:08.479Z,67.10
2022-12-08T10:12:47.837Z,66.90
2022-12-08T10:15:17.789Z,67.20
2022-12-08T10:17:50.224Z,67.30
2022-12-08T10:20:24.609Z,67.60
2022-12-08T10:22:59.617Z,67.90
2022-12-08T10:25:35.257Z,67.90
2022-12-08T10:28:02.092Z,68.10
2022-12-08T10:30:28.894Z,68.30
2022-12-08T10:32:55.840Z,68.30
2022-12-08T10:35:25.339Z,68.30
2022-12-08T10:38:02.857Z,67.80
2022-12-08T10:40:40.708Z,67.20
2022-12-08T10:43:18.973Z,67.30
2022-12-08T10:45:45.933Z,67.50
2022-12-08T10:48:24.153Z,67.80
2022-12-08T10:50:58.213Z,67.20
2022-12-08T10:53:28.349Z,67.30
2022-12-08T10:56:03.756Z,67.20
2022-12-08T10:58:40.807Z,67.30
2022-12-08T11:01:32.879Z,66.90
2022-12-08T11:04:06.250Z,66.80
2022-12-08T11:06:38.204Z,67.10
2022-12-08T11:09:22.749Z,67.20
2022-12-08T11:11:53.844Z,67.30
2022-12-08T11:14:32.531Z,67.20
2022-12-08T11:17:09.375Z,67.20
2022-12-08T11:19:42.590Z,67.30
2022-12-08T11:22:32.512Z,67.40
2022-12-08T11:25:00.618Z,67.40
2022-12-08T11:27:27.497Z,67.80
2022-12-08T11:29:54.708Z,67.90
2022-12-08T11:32:22.510Z,67.90
2022-12-08T11:34:55.518Z,67.50
2022-12-08T11:37:35.131Z,67.00
2022-12-08T11:40:07.755Z,67.10
2022-12-08T11:42:48.170Z,67.30
2022-12-08T11:45:24.221Z,67.50
2022-12-08T11:48:06.273Z,67.60
2022-12-08T11:50:40.250Z,67.10
2022-12-08T11:53:12.867Z,66.40
2022-12-08T11:55:50.484Z,66.80
2022-12-08T11:58:22.790Z,66.10
2022-12-08T12:00:50.151Z,66.10
2022-12-08T12:03:49.458Z,66.20
2022-12-08T12:06:53.322Z,66.20
2022-12-08T12:09:39.466Z,65.90
2022-12-08T12:12:24.643Z,65.90
2022-12-08T12:15:25.410Z,66.10
2022-12-08T12:17:57.888Z,66.00
2022-12-08T12:20:48.200Z,65.90
2022-12-08T12:23:40.365Z,65.90
2022-12-08T12:26:16.568Z,66.10
2022-12-08T12:28:53.751Z,66.30
2022-12-08T12:31:28.753Z,66.40
2022-12-08T12:34:06.330Z,66.40
2022-12-08T12:36:46.619Z,66.40
2022-12-08T12:39:15.434Z,66.50
2022-12-08T12:41:45.272Z,66.70
2022-12-08T12:44:15.097Z,66.60
2022-12-08T12:46:50.638Z,66.60
2022-12-08T12:49:40.579Z,66.50
2022-12-08T12:52:10.519Z,66.50
2022-12-08T12:54:43.403Z,66.40
2022-12-08T12:57:10.239Z,66.40
2022-12-08T12:59:42.780Z,66.50
2022-12-08T13:02:24.814Z,66.60
2022-12-08T13:05:02.729Z,66.80
2022-12-08T13:08:01.061Z,67.00
2022-12-08T13:10:31.090Z,67.30
2022-12-08T13:13:09.912Z,67.30
2022-12-08T13:15:36.877Z,67.40
2022-12-08T13:18:04.870Z,67.40
2022-12-08T13:20:40.328Z,67.60
2022-12-08T13:23:26.156Z,67.60
2022-12-08T13:26:09.604Z,67.90
2022-12-08T13:28:59.287Z,67.60
2022-12-08T13:32:01.547Z,67.70
2022-12-08T13:34:37.224Z,67.60
2022-12-08T13:37:13.862Z,67.50
2022-12-08T13:39:40.802Z,67.60
2022-12-08T13:42:23.065Z,67.60
2022-12-08T13:45:21.422Z,67.70
2022-12-08T13:57:09.913Z,68.40
2022-12-08T13:59:44.361Z,68.40
2022-12-08T14:02:20.608Z,68.70
2022-12-08T14:05:17.565Z,68.60
2022-12-08T14:07:35.123Z,68.50
2022-12-08T14:10:03.820Z,68.60
2022-12-08T14:12:31.589Z,68.70
2022-12-08T14:15:15.499Z,68.70
2022-12-08T14:17:54.561Z,68.60
2022-12-08T14:20:58.060Z,68.50
2022-12-08T14:23:22.384Z,68.50
2022-12-08T14:25:49.324Z,68.60
2022-12-08T14:28:17.166Z,68.60
2022-12-08T14:30:44.395Z,68.60
2022-12-08T14:33:17.112Z,68.60
2022-12-08T14:35:50.912Z,68.50
2022-12-08T14:38:19.866Z,68.50
2022-12-08T14:41:01.059Z,68.50
2022-12-08T14:43:29.532Z,68.30
2022-12-08T14:46:02.689Z,68.30
2022-12-08T14:48:36.260Z,68.50
2022-12-08T14:51:20.887Z,68.40
2022-12-08T14:53:53.737Z,68.50
2022-12-08T14:56:26.164Z,68.60
2022-12-08T14:59:24.930Z,68.40
2022-12-08T15:01:54.751Z,68.50
2022-12-08T15:04:27.812Z,68.60
2022-12-08T15:07:00.642Z,68.50
2022-12-08T15:09:36.595Z,68.40
2022-12-08T15:12:26.769Z,68.50
2022-12-08T15:15:09.701Z,68.60
2022-12-08T15:17:44.718Z,69.00
2022-12-08T15:20:38.827Z,69.40
2022-12-08T15:23:06.832Z,69.60
2022-12-08T15:25:35.290Z,69.80
2022-12-08T15:28:03.352Z,70.00
2022-12-08T15:30:31.258Z,70.10
2022-12-08T15:32:58.082Z,70.10
2022-12-08T15:35:25.160Z,70.10
2022-12-08T15:37:52.103Z,70.00
2022-12-08T15:40:22.900Z,69.80
2022-12-08T15:42:49.983Z,69.70
2022-12-08T15:45:17.723Z,69.50
2022-12-08T15:47:45.555Z,69.50
2022-12-08T15:50:17.753Z,69.50
2022-12-08T15:52:44.920Z,69.60
2022-12-08T15:55:16.528Z,69.60
2022-12-08T15:58:51.727Z,69.60
2022-12-08T16:00:54.179Z,69.80
2022-12-08T16:09:12.799Z,70.00
2022-12-08T16:12:08.972Z,70.00
2022-12-08T16:17:24.520Z,70.10
2022-12-08T16:19:51.403Z,70.30
2022-12-08T16:25:20.452Z,70.30
2022-12-08T16:30:36.946Z,70.40
2022-12-08T16:33:03.924Z,70.50
2022-12-08T16:35:31.161Z,70.50
2022-12-08T16:37:58.164Z,70.50
2022-12-08T16:40:25.384Z,70.70
2022-12-08T16:42:52.277Z,70.80
2022-12-08T16:45:24.877Z,70.80
2022-12-08T16:47:55.148Z,70.90
2022-12-08T16:50:23.449Z,71.00
2022-12-08T16:52:56.198Z,71.00
2022-12-08T16:55:23.037Z,70.90
2022-12-08T16:57:49.852Z,70.90
2022-12-08T17:00:22.165Z,71.00
2022-12-08T17:02:50.280Z,70.90
2022-12-08T17:05:19.570Z,71.00
2022-12-08T17:07:48.035Z,70.90
2022-12-08T17:10:18.589Z,70.80
2022-12-08T17:12:46.165Z,70.90
2022-12-08T17:15:15.650Z,71.00
2022-12-08T17:17:43.024Z,70.90
2022-12-08T17:20:14.962Z,71.00
2022-12-08T17:22:43.512Z,71.00
2022-12-08T17:25:10.777Z,70.90
2022-12-08T17:27:38.653Z,70.80
2022-12-08T17:30:11.770Z,70.80
2022-12-08T17:32:39.258Z,70.70
2022-12-08T17:35:07.332Z,70.80
2022-12-08T17:37:34.668Z,70.90
2022-12-08T17:40:01.844Z,70.80
2022-12-08T17:42:28.803Z,71.00
2022-12-08T17:44:56.095Z,70.90
2022-12-08T17:47:22.930Z,70.90
2022-12-08T17:49:49.812Z,71.10
2022-12-08T17:52:16.622Z,71.10
2022-12-08T17:54:43.437Z,71.20
2022-12-08T17:57:10.282Z,71.10
2022-12-08T17:59:37.081Z,71.10
2022-12-08T18:02:04.526Z,71.30
2022-12-08T18:04:32.103Z,71.20
2022-12-08T18:07:01.227Z,71.30
2022-12-08T18:09:31.241Z,71.30
2022-12-08T18:11:58.283Z,71.20
2022-12-08T18:14:25.553Z,71.30
2022-12-08T18:16:52.380Z,71.40
2022-12-08T18:19:19.276Z,71.40
2022-12-08T18:21:46.096Z,71.40
2022-12-08T18:24:21.206Z,71.30
2022-12-08T18:26:49.219Z,71.30
2022-12-08T18:29:16.061Z,71.30
2022-12-08T18:31:43.070Z,71.20
2022-12-08T18:34:09.862Z,71.30
2022-12-08T18:36:36.672Z,71.30
2022-12-08T18:39:10.254Z,71.30
2022-12-08T18:41:37.787Z,71.30
2022-12-08T18:44:04.804Z,71.40
2022-12-08T18:46:31.816Z,71.40
2022-12-08T18:48:59.450Z,71.50
2022-12-08T18:51:26.375Z,71.50
2022-12-08T18:53:53.361Z,71.50
2022-12-08T18:56:26.113Z,71.50
2022-12-08T18:58:58.450Z,71.40
2022-12-08T19:01:28.445Z,71.50
2022-12-08T19:04:26.910Z,71.60
2022-12-08T19:06:44.337Z,71.50
2022-12-08T19:09:12.976Z,71.60
2022-12-08T19:11:41.525Z,71.60
2022-12-08T19:14:09.162Z,71.60
2022-12-08T19:16:36.219Z,71.50
2022-12-08T19:19:04.194Z,71.50
2022-12-08T19:21:31.198Z,71.50
2022-12-08T19:24:00.723Z,71.60
2022-12-08T19:26:28.706Z,71.50
2022-12-08T19:28:55.516Z,71.40
2022-12-08T19:31:22.469Z,71.90
2022-12-08T19:33:49.406Z,71.30
2022-12-08T19:36:19.476Z,71.20
2022-12-08T19:39:05.597Z,71.10
2022-12-08T19:41:51.316Z,71.00
2022-12-08T19:44:34.101Z,70.90
2022-12-08T19:47:01.657Z,71.00
2022-12-08T19:49:28.606Z,71.20
2022-12-08T19:51:56.032Z,71.90
2022-12-08T19:54:23.683Z,71.30
2022-12-08T19:56:50.622Z,71.40
2022-12-08T19:59:18.195Z,71.50
2022-12-08T20:01:45.584Z,71.60
2022-12-08T20:04:14.865Z,71.70
2022-12-08T20:06:42.130Z,71.70
2022-12-08T20:09:10.354Z,71.70
2022-12-08T20:11:38.020Z,71.70
2022-12-08T20:14:05.266Z,71.70
2022-12-08T20:16:33.023Z,71.70
2022-12-08T20:18:59.969Z,71.70
2022-12-08T20:21:26.804Z,71.60
2022-12-08T20:23:54.187Z,71.90
2022-12-08T20:26:22.219Z,71.90
2022-12-08T20:28:49.732Z,71.90
2022-12-08T20:31:25.047Z,71.90
2022-12-08T20:33:52.479Z,71.70
2022-12-08T20:36:20.741Z,71.50
2022-12-08T20:38:49.524Z,71.50
2022-12-08T20:41:18.264Z,71.20
2022-12-08T20:43:46.527Z,71.10
2022-12-08T20:46:16.484Z,71.00
2022-12-08T20:48:44.216Z,71.10
2022-12-08T20:51:19.559Z,71.20
2022-12-08T20:53:47.152Z,71.30
2022-12-08T20:56:20.340Z,71.40
2022-12-08T20:58:47.430Z,71.30
2022-12-08T21:01:17.265Z,71.20
2022-12-08T21:03:45.341Z,71.30
2022-12-08T21:06:12.856Z,71.30
2022-12-08T21:08:40.263Z,71.40
2022-12-08T21:11:08.600Z,71.60
2022-12-08T21:13:37.324Z,71.60
2022-12-08T21:16:05.030Z,71.60
2022-12-08T21:18:39.019Z,71.60
2022-12-08T21:21:14.799Z,71.70
2022-12-08T21:23:42.824Z,71.60
2022-12-08T21:26:21.115Z,71.60
2022-12-08T21:28:48.269Z,71.70
2022-12-08T21:31:18.381Z,71.60
2022-12-08T21:33:45.780Z,71.70
2022-12-08T21:36:15.685Z,71.80
2022-12-08T21:38:43.932Z,71.80
2022-12-08T21:41:14.520Z,71.70
2022-12-08T21:43:42.471Z,71.80
2022-12-08T21:46:17.250Z,71.70
2022-12-08T21:48:44.468Z,71.70
2022-12-08T21:51:11.600Z,71.70
2022-12-08T21:53:38.625Z,71.70
2022-12-08T21:56:09.491Z,71.70
2022-12-08T21:58:36.677Z,71.70
2022-12-08T22:01:08.437Z,71.80
2022-12-08T22:03:36.473Z,71.90
2022-12-08T22:06:12.330Z,72.60
2022-12-08T22:08:39.939Z,72.00
2022-12-08T22:11:08.191Z,72.00
2022-12-08T22:13:36.629Z,71.90
2022-12-08T22:16:06.757Z,71.80
2022-12-08T22:18:35.075Z,71.70
2022-12-08T22:21:02.989Z,71.60
2022-12-08T22:23:30.005Z,71.60
2022-12-08T22:26:01.331Z,71.60
2022-12-08T22:28:30.765Z,71.70
2022-12-08T22:30:57.636Z,71.80
2022-12-08T22:33:24.827Z,71.70
2022-12-08T22:36:03.422Z,71.80
2022-12-08T22:38:33.481Z,71.80
2022-12-08T22:41:00.455Z,71.90
2022-12-08T22:43:28.717Z,71.90
2022-12-08T22:45:55.603Z,72.00
2022-12-08T22:48:22.527Z,72.00
2022-12-08T22:50:49.303Z,72.10
2022-12-08T22:53:16.137Z,72.10
2022-12-08T22:55:46.694Z,72.30
2022-12-08T22:58:14.000Z,72.30
2022-12-08T23:00:41.115Z,72.20
2022-12-08T23:03:08.410Z,72.00
2022-12-08T23:05:36.790Z,71.90
2022-12-08T23:08:05.601Z,71.80
2022-12-08T23:10:33.594Z,71.70
2022-12-08T23:13:03.727Z,71.60
2022-12-08T23:15:31.249Z,72.10
2022-12-08T23:17:58.710Z,71.50
2022-12-08T23:20:25.800Z,71.50
2022-12-08T23:22:52.689Z,71.40
2022-12-08T23:25:19.696Z,71.40
2022-12-08T23:27:47.132Z,71.50
2022-12-08T23:30:15.014Z,71.60
2022-12-08T23:32:42.305Z,71.70
2022-12-08T23:35:09.503Z,71.50
2022-12-08T23:37:36.583Z,71.40
2022-12-08T23:40:04.767Z,71.20
2022-12-08T23:42:32.227Z,71.00
2022-12-08T23:44:59.122Z,71.00
2022-12-08T23:47:26.087Z,71.00
2022-12-08T23:49:52.976Z,70.90
2022-12-08T23:52:19.931Z,70.90
2022-12-08T23:54:49.490Z,70.90
2022-12-08T23:57:16.628Z,70.90
2022-12-08T23:59:43.696Z,70.80
